sensor_id;sensor_type;location;lat;lon;timestamp;P1;durP1;ratioP1;P2;durP2;ratioP2
42294;SDS011;27947;47.556;18.718;2023-05-14T00:02:00;8.43;;;4.93;;
42294;SDS011;27947;47.556;18.718;2023-05-14T00:04:25;7.88;;;5.22;;
42294;SDS011;27947;47.556;18.718;2023-05-14T00:06:50;7.32;;;5.00;;
42294;SDS011;27947;47.556;18.718;2023-05-14T00:09:16;10.05;;;5.45;;
42294;SDS011;27947;47.556;18.718;2023-05-14T00:11:42;10.35;;;5.70;;
42294;SDS011;27947;47.556;18.718;2023-05-14T00:14:07;8.07;;;5.40;;
42294;SDS011;27947;47.556;18.718;2023-05-14T00:16:32;9.50;;;5.20;;
42294;SDS011;27947;47.556;18.718;2023-05-14T00:18:58;6.40;;;5.20;;
42294;SDS011;27947;47.556;18.718;2023-05-14T00:21:23;10.55;;;5.63;;
42294;SDS011;27947;47.556;18.718;2023-05-14T00:23:48;9.57;;;6.03;;
42294;SDS011;27947;47.556;18.718;2023-05-14T00:26:14;7.47;;;5.68;;
42294;SDS011;27947;47.556;18.718;2023-05-14T00:28:42;8.80;;;5.68;;
42294;SDS011;27947;47.556;18.718;2023-05-14T00:31:07;9.77;;;5.75;;
42294;SDS011;27947;47.556;18.718;2023-05-14T00:33:33;8.50;;;5.20;;
42294;SDS011;27947;47.556;18.718;2023-05-14T00:35:59;8.88;;;5.30;;
42294;SDS011;27947;47.556;18.718;2023-05-14T00:38:24;8.55;;;5.20;;
42294;SDS011;27947;47.556;18.718;2023-05-14T00:40:51;6.75;;;5.15;;
42294;SDS011;27947;47.556;18.718;2023-05-14T00:43:18;8.43;;;5.45;;
42294;SDS011;27947;47.556;18.718;2023-05-14T00:45:43;8.13;;;5.63;;
42294;SDS011;27947;47.556;18.718;2023-05-14T00:48:09;6.85;;;5.28;;
42294;SDS011;27947;47.556;18.718;2023-05-14T00:50:34;7.55;;;5.85;;
42294;SDS011;27947;47.556;18.718;2023-05-14T00:53:00;11.13;;;5.47;;
42294;SDS011;27947;47.556;18.718;2023-05-14T00:55:25;10.25;;;6.20;;
42294;SDS011;27947;47.556;18.718;2023-05-14T00:57:52;7.30;;;5.63;;
42294;SDS011;27947;47.556;18.718;2023-05-14T01:00:18;8.30;;;5.65;;
42294;SDS011;27947;47.556;18.718;2023-05-14T01:02:44;8.43;;;5.90;;
42294;SDS011;27947;47.556;18.718;2023-05-14T01:05:09;8.85;;;6.05;;
42294;SDS011;27947;47.556;18.718;2023-05-14T01:07:42;7.03;;;5.18;;
42294;SDS011;27947;47.556;18.718;2023-05-14T01:10:31;11.27;;;5.85;;
42294;SDS011;27947;47.556;18.718;2023-05-14T01:15:30;8.45;;;5.30;;
42294;SDS011;27947;47.556;18.718;2023-05-14T01:18:02;6.50;;;5.22;;
42294;SDS011;27947;47.556;18.718;2023-05-14T01:20:28;8.48;;;5.15;;
42294;SDS011;27947;47.556;18.718;2023-05-14T01:22:54;8.85;;;5.45;;
42294;SDS011;27947;47.556;18.718;2023-05-14T01:25:19;6.50;;;5.32;;
42294;SDS011;27947;47.556;18.718;2023-05-14T01:27:48;8.63;;;5.18;;
42294;SDS011;27947;47.556;18.718;2023-05-14T01:32:43;9.45;;;5.30;;
42294;SDS011;27947;47.556;18.718;2023-05-14T01:35:11;8.85;;;5.63;;
42294;SDS011;27947;47.556;18.718;2023-05-14T01:37:37;9.10;;;5.47;;
42294;SDS011;27947;47.556;18.718;2023-05-14T01:40:03;8.43;;;5.10;;
42294;SDS011;27947;47.556;18.718;2023-05-14T01:42:30;7.53;;;5.63;;
42294;SDS011;27947;47.556;18.718;2023-05-14T01:44:56;7.38;;;5.40;;
42294;SDS011;27947;47.556;18.718;2023-05-14T01:47:22;7.15;;;5.55;;
42294;SDS011;27947;47.556;18.718;2023-05-14T01:49:47;10.52;;;5.50;;
42294;SDS011;27947;47.556;18.718;2023-05-14T01:52:12;8.73;;;5.75;;
42294;SDS011;27947;47.556;18.718;2023-05-14T01:54:38;10.23;;;5.45;;
42294;SDS011;27947;47.556;18.718;2023-05-14T01:57:03;8.35;;;5.50;;
42294;SDS011;27947;47.556;18.718;2023-05-14T01:59:29;8.75;;;5.40;;
42294;SDS011;27947;47.556;18.718;2023-05-14T02:01:54;9.27;;;5.30;;
42294;SDS011;27947;47.556;18.718;2023-05-14T02:04:19;11.90;;;5.90;;
42294;SDS011;27947;47.556;18.718;2023-05-14T02:06:45;11.55;;;6.10;;
42294;SDS011;27947;47.556;18.718;2023-05-14T02:09:11;7.38;;;5.50;;
42294;SDS011;27947;47.556;18.718;2023-05-14T02:11:36;5.95;;;4.82;;
42294;SDS011;27947;47.556;18.718;2023-05-14T02:14:01;9.68;;;5.45;;
42294;SDS011;27947;47.556;18.718;2023-05-14T02:16:27;6.35;;;4.63;;
42294;SDS011;27947;47.556;18.718;2023-05-14T02:18:52;6.57;;;5.28;;
42294;SDS011;27947;47.556;18.718;2023-05-14T02:21:18;9.50;;;5.43;;
42294;SDS011;27947;47.556;18.718;2023-05-14T02:23:43;7.25;;;5.05;;
42294;SDS011;27947;47.556;18.718;2023-05-14T02:26:09;9.18;;;5.32;;
42294;SDS011;27947;47.556;18.718;2023-05-14T02:28:34;9.40;;;4.40;;
42294;SDS011;27947;47.556;18.718;2023-05-14T02:31:00;8.18;;;4.68;;
42294;SDS011;27947;47.556;18.718;2023-05-14T02:33:26;6.22;;;4.63;;
42294;SDS011;27947;47.556;18.718;2023-05-14T02:35:51;7.93;;;4.85;;
42294;SDS011;27947;47.556;18.718;2023-05-14T02:38:17;6.63;;;4.97;;
42294;SDS011;27947;47.556;18.718;2023-05-14T02:40:43;6.65;;;4.68;;
42294;SDS011;27947;47.556;18.718;2023-05-14T02:43:08;7.35;;;4.95;;
42294;SDS011;27947;47.556;18.718;2023-05-14T02:45:34;7.63;;;4.85;;
42294;SDS011;27947;47.556;18.718;2023-05-14T02:47:59;5.72;;;4.65;;
42294;SDS011;27947;47.556;18.718;2023-05-14T02:50:25;6.28;;;4.70;;
42294;SDS011;27947;47.556;18.718;2023-05-14T02:52:50;7.90;;;4.43;;
42294;SDS011;27947;47.556;18.718;2023-05-14T02:55:15;6.28;;;4.70;;
42294;SDS011;27947;47.556;18.718;2023-05-14T02:57:41;7.38;;;5.00;;
42294;SDS011;27947;47.556;18.718;2023-05-14T03:00:06;9.43;;;5.13;;
42294;SDS011;27947;47.556;18.718;2023-05-14T03:02:33;7.05;;;4.85;;
42294;SDS011;27947;47.556;18.718;2023-05-14T03:05:00;10.10;;;5.10;;
42294;SDS011;27947;47.556;18.718;2023-05-14T03:07:25;7.20;;;4.75;;
42294;SDS011;27947;47.556;18.718;2023-05-14T03:09:51;9.18;;;5.07;;
42294;SDS011;27947;47.556;18.718;2023-05-14T03:12:17;12.80;;;5.18;;
42294;SDS011;27947;47.556;18.718;2023-05-14T03:14:42;7.47;;;4.82;;
42294;SDS011;27947;47.556;18.718;2023-05-14T03:17:08;9.45;;;4.68;;
42294;SDS011;27947;47.556;18.718;2023-05-14T03:19:33;9.40;;;4.70;;
42294;SDS011;27947;47.556;18.718;2023-05-14T03:21:59;7.25;;;4.57;;
42294;SDS011;27947;47.556;18.718;2023-05-14T03:24:24;9.35;;;5.13;;
42294;SDS011;27947;47.556;18.718;2023-05-14T03:26:50;6.43;;;4.32;;
42294;SDS011;27947;47.556;18.718;2023-05-14T03:29:15;7.53;;;4.38;;
42294;SDS011;27947;47.556;18.718;2023-05-14T03:31:42;31.42;;;4.32;;
42294;SDS011;27947;47.556;18.718;2023-05-14T03:34:08;7.30;;;4.82;;
42294;SDS011;27947;47.556;18.718;2023-05-14T03:36:34;6.60;;;4.97;;
42294;SDS011;27947;47.556;18.718;2023-05-14T03:39:01;7.35;;;4.70;;
42294;SDS011;27947;47.556;18.718;2023-05-14T03:41:27;8.55;;;4.90;;
42294;SDS011;27947;47.556;18.718;2023-05-14T03:43:52;6.78;;;4.25;;
42294;SDS011;27947;47.556;18.718;2023-05-14T03:46:18;9.10;;;4.90;;
42294;SDS011;27947;47.556;18.718;2023-05-14T03:48:43;6.88;;;4.55;;
42294;SDS011;27947;47.556;18.718;2023-05-14T03:51:08;7.00;;;4.25;;
42294;SDS011;27947;47.556;18.718;2023-05-14T03:53:34;5.32;;;4.15;;
42294;SDS011;27947;47.556;18.718;2023-05-14T03:56:00;7.18;;;4.50;;
42294;SDS011;27947;47.556;18.718;2023-05-14T03:58:25;7.68;;;4.15;;
42294;SDS011;27947;47.556;18.718;2023-05-14T04:00:51;10.68;;;4.50;;
42294;SDS011;27947;47.556;18.718;2023-05-14T04:03:17;6.28;;;4.50;;
42294;SDS011;27947;47.556;18.718;2023-05-14T04:05:42;7.97;;;4.47;;
42294;SDS011;27947;47.556;18.718;2023-05-14T04:08:07;6.47;;;4.35;;
42294;SDS011;27947;47.556;18.718;2023-05-14T04:10:33;6.90;;;4.20;;
42294;SDS011;27947;47.556;18.718;2023-05-14T04:12:59;6.43;;;3.95;;
42294;SDS011;27947;47.556;18.718;2023-05-14T04:15:28;11.13;;;4.35;;
42294;SDS011;27947;47.556;18.718;2023-05-14T04:17:54;6.82;;;4.53;;
42294;SDS011;27947;47.556;18.718;2023-05-14T04:20:19;6.75;;;4.22;;
42294;SDS011;27947;47.556;18.718;2023-05-14T04:22:44;7.93;;;4.13;;
42294;SDS011;27947;47.556;18.718;2023-05-14T04:25:10;8.15;;;4.82;;
42294;SDS011;27947;47.556;18.718;2023-05-14T04:27:35;6.60;;;4.53;;
42294;SDS011;27947;47.556;18.718;2023-05-14T04:30:00;8.80;;;4.30;;
42294;SDS011;27947;47.556;18.718;2023-05-14T04:32:26;6.90;;;4.60;;
42294;SDS011;27947;47.556;18.718;2023-05-14T04:34:51;6.72;;;4.53;;
42294;SDS011;27947;47.556;18.718;2023-05-14T04:37:16;9.32;;;4.50;;
42294;SDS011;27947;47.556;18.718;2023-05-14T04:39:42;7.13;;;4.65;;
42294;SDS011;27947;47.556;18.718;2023-05-14T04:42:07;7.07;;;4.32;;
42294;SDS011;27947;47.556;18.718;2023-05-14T04:44:33;6.57;;;4.18;;
42294;SDS011;27947;47.556;18.718;2023-05-14T04:46:59;7.15;;;4.30;;
42294;SDS011;27947;47.556;18.718;2023-05-14T04:49:24;5.60;;;3.97;;
42294;SDS011;27947;47.556;18.718;2023-05-14T04:51:50;10.88;;;4.18;;
42294;SDS011;27947;47.556;18.718;2023-05-14T04:54:15;5.13;;;3.72;;
42294;SDS011;27947;47.556;18.718;2023-05-14T04:56:40;5.78;;;3.63;;
42294;SDS011;27947;47.556;18.718;2023-05-14T04:59:06;6.78;;;4.32;;
42294;SDS011;27947;47.556;18.718;2023-05-14T05:01:31;7.43;;;4.13;;
42294;SDS011;27947;47.556;18.718;2023-05-14T05:03:57;6.15;;;4.15;;
42294;SDS011;27947;47.556;18.718;2023-05-14T05:06:22;5.03;;;3.63;;
42294;SDS011;27947;47.556;18.718;2023-05-14T05:08:47;7.90;;;3.97;;
42294;SDS011;27947;47.556;18.718;2023-05-14T05:11:13;6.43;;;3.67;;
42294;SDS011;27947;47.556;18.718;2023-05-14T05:13:38;5.35;;;3.42;;
42294;SDS011;27947;47.556;18.718;2023-05-14T05:16:04;6.35;;;4.00;;
42294;SDS011;27947;47.556;18.718;2023-05-14T05:18:29;7.60;;;3.95;;
42294;SDS011;27947;47.556;18.718;2023-05-14T05:20:55;4.97;;;3.85;;
42294;SDS011;27947;47.556;18.718;2023-05-14T05:23:20;6.97;;;3.92;;
42294;SDS011;27947;47.556;18.718;2023-05-14T05:25:45;5.85;;;4.20;;
42294;SDS011;27947;47.556;18.718;2023-05-14T05:28:11;7.38;;;3.72;;
42294;SDS011;27947;47.556;18.718;2023-05-14T05:30:36;4.65;;;3.67;;
42294;SDS011;27947;47.556;18.718;2023-05-14T05:33:01;8.45;;;4.07;;
42294;SDS011;27947;47.556;18.718;2023-05-14T05:35:27;7.13;;;3.83;;
42294;SDS011;27947;47.556;18.718;2023-05-14T05:37:52;9.38;;;4.20;;
42294;SDS011;27947;47.556;18.718;2023-05-14T05:40:18;7.60;;;3.92;;
42294;SDS011;27947;47.556;18.718;2023-05-14T05:42:43;5.50;;;3.90;;
42294;SDS011;27947;47.556;18.718;2023-05-14T05:45:09;6.25;;;4.03;;
42294;SDS011;27947;47.556;18.718;2023-05-14T05:47:34;7.28;;;4.32;;
42294;SDS011;27947;47.556;18.718;2023-05-14T05:50:00;5.43;;;3.90;;
42294;SDS011;27947;47.556;18.718;2023-05-14T05:52:25;5.88;;;4.47;;
42294;SDS011;27947;47.556;18.718;2023-05-14T05:54:50;5.45;;;4.00;;
42294;SDS011;27947;47.556;18.718;2023-05-14T05:57:16;4.47;;;3.65;;
42294;SDS011;27947;47.556;18.718;2023-05-14T05:59:41;8.80;;;3.97;;
42294;SDS011;27947;47.556;18.718;2023-05-14T06:02:07;5.40;;;4.07;;
42294;SDS011;27947;47.556;18.718;2023-05-14T06:04:32;5.35;;;4.20;;
42294;SDS011;27947;47.556;18.718;2023-05-14T06:06:57;6.25;;;4.22;;
42294;SDS011;27947;47.556;18.718;2023-05-14T06:09:23;7.13;;;4.25;;
42294;SDS011;27947;47.556;18.718;2023-05-14T06:11:48;7.68;;;4.20;;
42294;SDS011;27947;47.556;18.718;2023-05-14T06:14:13;4.65;;;4.03;;
42294;SDS011;27947;47.556;18.718;2023-05-14T06:16:39;8.45;;;4.05;;
42294;SDS011;27947;47.556;18.718;2023-05-14T06:19:04;5.40;;;4.13;;
42294;SDS011;27947;47.556;18.718;2023-05-14T06:21:30;8.30;;;4.28;;
42294;SDS011;27947;47.556;18.718;2023-05-14T06:23:55;6.80;;;4.03;;
42294;SDS011;27947;47.556;18.718;2023-05-14T06:26:21;6.22;;;4.10;;
42294;SDS011;27947;47.556;18.718;2023-05-14T06:28:46;7.82;;;4.22;;
42294;SDS011;27947;47.556;18.718;2023-05-14T06:31:11;8.35;;;3.80;;
42294;SDS011;27947;47.556;18.718;2023-05-14T06:33:37;8.15;;;4.80;;
42294;SDS011;27947;47.556;18.718;2023-05-14T06:36:03;10.18;;;4.43;;
42294;SDS011;27947;47.556;18.718;2023-05-14T06:38:29;7.95;;;4.50;;
42294;SDS011;27947;47.556;18.718;2023-05-14T06:40:54;6.93;;;4.47;;
42294;SDS011;27947;47.556;18.718;2023-05-14T06:43:20;8.80;;;4.55;;
42294;SDS011;27947;47.556;18.718;2023-05-14T06:45:51;5.78;;;4.57;;
42294;SDS011;27947;47.556;18.718;2023-05-14T06:48:17;10.13;;;5.47;;
42294;SDS011;27947;47.556;18.718;2023-05-14T06:50:43;11.38;;;5.15;;
42294;SDS011;27947;47.556;18.718;2023-05-14T06:53:08;7.25;;;5.13;;
42294;SDS011;27947;47.556;18.718;2023-05-14T06:55:33;7.53;;;4.53;;
42294;SDS011;27947;47.556;18.718;2023-05-14T06:57:59;6.47;;;4.75;;
42294;SDS011;27947;47.556;18.718;2023-05-14T07:00:24;9.57;;;5.82;;
42294;SDS011;27947;47.556;18.718;2023-05-14T07:02:50;8.73;;;5.60;;
42294;SDS011;27947;47.556;18.718;2023-05-14T07:05:15;9.27;;;5.63;;
42294;SDS011;27947;47.556;18.718;2023-05-14T07:07:41;9.27;;;5.70;;
42294;SDS011;27947;47.556;18.718;2023-05-14T07:10:06;6.32;;;5.32;;
42294;SDS011;27947;47.556;18.718;2023-05-14T07:12:32;7.43;;;5.45;;
42294;SDS011;27947;47.556;18.718;2023-05-14T07:14:57;7.93;;;5.50;;
42294;SDS011;27947;47.556;18.718;2023-05-14T07:17:22;9.45;;;5.53;;
42294;SDS011;27947;47.556;18.718;2023-05-14T07:19:48;8.80;;;5.70;;
42294;SDS011;27947;47.556;18.718;2023-05-14T07:22:13;9.95;;;5.70;;
42294;SDS011;27947;47.556;18.718;2023-05-14T07:24:39;7.10;;;5.40;;
42294;SDS011;27947;47.556;18.718;2023-05-14T07:27:04;9.88;;;5.60;;
42294;SDS011;27947;47.556;18.718;2023-05-14T07:29:30;7.15;;;5.00;;
42294;SDS011;27947;47.556;18.718;2023-05-14T07:31:59;7.82;;;6.07;;
42294;SDS011;27947;47.556;18.718;2023-05-14T07:34:24;9.07;;;5.47;;
42294;SDS011;27947;47.556;18.718;2023-05-14T07:36:49;7.38;;;5.32;;
42294;SDS011;27947;47.556;18.718;2023-05-14T07:39:15;9.18;;;6.45;;
42294;SDS011;27947;47.556;18.718;2023-05-14T07:41:40;10.80;;;6.05;;
42294;SDS011;27947;47.556;18.718;2023-05-14T07:44:05;12.10;;;6.72;;
42294;SDS011;27947;47.556;18.718;2023-05-14T07:46:31;9.13;;;6.13;;
42294;SDS011;27947;47.556;18.718;2023-05-14T07:48:56;9.82;;;5.78;;
42294;SDS011;27947;47.556;18.718;2023-05-14T07:51:21;13.27;;;7.15;;
42294;SDS011;27947;47.556;18.718;2023-05-14T07:53:47;12.27;;;7.65;;
42294;SDS011;27947;47.556;18.718;2023-05-14T07:56:12;14.43;;;8.77;;
42294;SDS011;27947;47.556;18.718;2023-05-14T07:58:37;11.27;;;7.00;;
42294;SDS011;27947;47.556;18.718;2023-05-14T08:01:03;11.27;;;6.82;;
42294;SDS011;27947;47.556;18.718;2023-05-14T08:03:31;9.68;;;4.60;;
42294;SDS011;27947;47.556;18.718;2023-05-14T08:05:56;7.53;;;5.28;;
42294;SDS011;27947;47.556;18.718;2023-05-14T08:08:22;8.90;;;5.93;;
42294;SDS011;27947;47.556;18.718;2023-05-14T08:10:47;9.48;;;5.78;;
42294;SDS011;27947;47.556;18.718;2023-05-14T08:13:12;7.40;;;5.32;;
42294;SDS011;27947;47.556;18.718;2023-05-14T08:15:38;10.30;;;5.93;;
42294;SDS011;27947;47.556;18.718;2023-05-14T08:18:03;7.32;;;5.30;;
42294;SDS011;27947;47.556;18.718;2023-05-14T08:20:29;8.60;;;5.53;;
42294;SDS011;27947;47.556;18.718;2023-05-14T08:22:55;6.40;;;4.72;;
42294;SDS011;27947;47.556;18.718;2023-05-14T08:25:21;7.05;;;5.43;;
42294;SDS011;27947;47.556;18.718;2023-05-14T08:27:47;9.95;;;5.70;;
42294;SDS011;27947;47.556;18.718;2023-05-14T08:30:12;10.77;;;5.20;;
42294;SDS011;27947;47.556;18.718;2023-05-14T08:32:37;9.73;;;6.35;;
42294;SDS011;27947;47.556;18.718;2023-05-14T08:35:03;8.65;;;6.20;;
42294;SDS011;27947;47.556;18.718;2023-05-14T08:37:28;9.65;;;5.85;;
42294;SDS011;27947;47.556;18.718;2023-05-14T08:39:54;10.20;;;6.60;;
42294;SDS011;27947;47.556;18.718;2023-05-14T08:42:20;6.32;;;5.00;;
42294;SDS011;27947;47.556;18.718;2023-05-14T08:44:48;8.35;;;5.38;;
42294;SDS011;27947;47.556;18.718;2023-05-14T08:47:17;7.65;;;4.93;;
42294;SDS011;27947;47.556;18.718;2023-05-14T08:49:45;7.05;;;4.47;;
42294;SDS011;27947;47.556;18.718;2023-05-14T08:52:10;9.55;;;5.30;;
42294;SDS011;27947;47.556;18.718;2023-05-14T08:54:36;10.57;;;6.50;;
42294;SDS011;27947;47.556;18.718;2023-05-14T08:57:02;6.45;;;5.43;;
42294;SDS011;27947;47.556;18.718;2023-05-14T08:59:27;8.50;;;6.60;;
42294;SDS011;27947;47.556;18.718;2023-05-14T09:01:53;9.93;;;7.20;;
42294;SDS011;27947;47.556;18.718;2023-05-14T09:04:19;12.27;;;7.20;;
42294;SDS011;27947;47.556;18.718;2023-05-14T09:06:45;9.48;;;6.85;;
42294;SDS011;27947;47.556;18.718;2023-05-14T09:09:12;10.80;;;6.88;;
42294;SDS011;27947;47.556;18.718;2023-05-14T09:11:44;10.13;;;6.63;;
42294;SDS011;27947;47.556;18.718;2023-05-14T09:14:10;8.95;;;7.00;;
42294;SDS011;27947;47.556;18.718;2023-05-14T09:16:35;8.13;;;6.57;;
42294;SDS011;27947;47.556;18.718;2023-05-14T09:19:01;8.68;;;6.38;;
42294;SDS011;27947;47.556;18.718;2023-05-14T09:21:27;9.30;;;7.35;;
42294;SDS011;27947;47.556;18.718;2023-05-14T09:23:53;9.75;;;7.00;;
42294;SDS011;27947;47.556;18.718;2023-05-14T09:26:21;8.43;;;6.15;;
42294;SDS011;27947;47.556;18.718;2023-05-14T09:28:47;10.98;;;7.10;;
42294;SDS011;27947;47.556;18.718;2023-05-14T09:31:12;11.57;;;7.50;;
42294;SDS011;27947;47.556;18.718;2023-05-14T09:33:38;10.80;;;7.60;;
42294;SDS011;27947;47.556;18.718;2023-05-14T09:36:03;8.73;;;7.03;;
42294;SDS011;27947;47.556;18.718;2023-05-14T09:38:29;8.73;;;7.20;;
42294;SDS011;27947;47.556;18.718;2023-05-14T09:40:55;10.13;;;7.25;;
42294;SDS011;27947;47.556;18.718;2023-05-14T09:43:21;10.40;;;7.03;;
42294;SDS011;27947;47.556;18.718;2023-05-14T09:45:46;10.73;;;7.53;;
42294;SDS011;27947;47.556;18.718;2023-05-14T09:48:12;13.65;;;7.25;;
42294;SDS011;27947;47.556;18.718;2023-05-14T09:50:41;9.38;;;7.35;;
42294;SDS011;27947;47.556;18.718;2023-05-14T09:53:06;11.40;;;8.23;;
42294;SDS011;27947;47.556;18.718;2023-05-14T09:55:32;8.98;;;7.05;;
42294;SDS011;27947;47.556;18.718;2023-05-14T09:57:57;10.38;;;7.90;;
42294;SDS011;27947;47.556;18.718;2023-05-14T10:00:23;12.70;;;8.45;;
42294;SDS011;27947;47.556;18.718;2023-05-14T10:02:48;12.57;;;8.18;;
42294;SDS011;27947;47.556;18.718;2023-05-14T10:05:15;11.48;;;8.00;;
42294;SDS011;27947;47.556;18.718;2023-05-14T10:07:47;10.25;;;7.30;;
42294;SDS011;27947;47.556;18.718;2023-05-14T10:10:19;10.10;;;7.20;;
42294;SDS011;27947;47.556;18.718;2023-05-14T10:12:48;12.10;;;8.02;;
42294;SDS011;27947;47.556;18.718;2023-05-14T10:15:16;12.77;;;8.45;;
42294;SDS011;27947;47.556;18.718;2023-05-14T10:17:45;14.45;;;8.07;;
42294;SDS011;27947;47.556;18.718;2023-05-14T10:20:13;10.02;;;7.53;;
42294;SDS011;27947;47.556;18.718;2023-05-14T10:22:39;10.57;;;7.80;;
42294;SDS011;27947;47.556;18.718;2023-05-14T10:25:04;11.13;;;8.07;;
42294;SDS011;27947;47.556;18.718;2023-05-14T10:27:31;10.93;;;7.53;;
42294;SDS011;27947;47.556;18.718;2023-05-14T10:29:56;10.20;;;7.78;;
42294;SDS011;27947;47.556;18.718;2023-05-14T10:32:22;10.65;;;7.28;;
42294;SDS011;27947;47.556;18.718;2023-05-14T10:34:49;8.27;;;6.93;;
42294;SDS011;27947;47.556;18.718;2023-05-14T10:37:16;9.65;;;6.63;;
42294;SDS011;27947;47.556;18.718;2023-05-14T10:39:43;12.02;;;7.57;;
42294;SDS011;27947;47.556;18.718;2023-05-14T10:42:12;11.32;;;7.43;;
42294;SDS011;27947;47.556;18.718;2023-05-14T10:44:40;10.57;;;7.45;;
42294;SDS011;27947;47.556;18.718;2023-05-14T10:47:06;12.07;;;7.18;;
42294;SDS011;27947;47.556;18.718;2023-05-14T10:49:32;10.50;;;7.70;;
42294;SDS011;27947;47.556;18.718;2023-05-14T10:51:58;10.52;;;6.85;;
42294;SDS011;27947;47.556;18.718;2023-05-14T10:54:23;9.75;;;7.70;;
42294;SDS011;27947;47.556;18.718;2023-05-14T10:56:48;11.00;;;7.28;;
42294;SDS011;27947;47.556;18.718;2023-05-14T10:59:16;19.10;;;8.63;;
42294;SDS011;27947;47.556;18.718;2023-05-14T11:01:42;8.77;;;6.47;;
42294;SDS011;27947;47.556;18.718;2023-05-14T11:04:08;11.27;;;7.18;;
42294;SDS011;27947;47.556;18.718;2023-05-14T11:06:41;12.45;;;7.45;;
42294;SDS011;27947;47.556;18.718;2023-05-14T11:09:08;10.02;;;7.35;;
42294;SDS011;27947;47.556;18.718;2023-05-14T11:11:34;10.48;;;7.22;;
42294;SDS011;27947;47.556;18.718;2023-05-14T11:13:59;10.05;;;7.70;;
42294;SDS011;27947;47.556;18.718;2023-05-14T11:16:26;9.82;;;7.50;;
42294;SDS011;27947;47.556;18.718;2023-05-14T11:19:01;10.25;;;7.18;;
42294;SDS011;27947;47.556;18.718;2023-05-14T11:21:27;11.35;;;7.03;;
42294;SDS011;27947;47.556;18.718;2023-05-14T11:23:53;11.00;;;7.60;;
42294;SDS011;27947;47.556;18.718;2023-05-14T11:26:19;9.35;;;7.05;;
42294;SDS011;27947;47.556;18.718;2023-05-14T11:28:44;12.27;;;7.70;;
42294;SDS011;27947;47.556;18.718;2023-05-14T11:31:10;14.20;;;7.65;;
42294;SDS011;27947;47.556;18.718;2023-05-14T11:33:36;10.73;;;7.30;;
42294;SDS011;27947;47.556;18.718;2023-05-14T11:36:01;8.88;;;6.90;;
42294;SDS011;27947;47.556;18.718;2023-05-14T11:38:26;9.88;;;6.82;;
42294;SDS011;27947;47.556;18.718;2023-05-14T11:40:55;8.90;;;7.03;;
42294;SDS011;27947;47.556;18.718;2023-05-14T11:43:21;10.98;;;7.07;;
42294;SDS011;27947;47.556;18.718;2023-05-14T11:45:52;12.50;;;7.85;;
42294;SDS011;27947;47.556;18.718;2023-05-14T11:48:18;10.73;;;7.95;;
42294;SDS011;27947;47.556;18.718;2023-05-14T11:50:45;9.25;;;7.30;;
42294;SDS011;27947;47.556;18.718;2023-05-14T11:53:14;12.00;;;7.63;;
42294;SDS011;27947;47.556;18.718;2023-05-14T11:55:40;10.60;;;7.90;;
42294;SDS011;27947;47.556;18.718;2023-05-14T11:58:05;9.48;;;7.68;;
42294;SDS011;27947;47.556;18.718;2023-05-14T12:00:31;12.68;;;8.20;;
42294;SDS011;27947;47.556;18.718;2023-05-14T12:02:58;12.68;;;8.30;;
42294;SDS011;27947;47.556;18.718;2023-05-14T12:05:23;11.93;;;9.02;;
42294;SDS011;27947;47.556;18.718;2023-05-14T12:07:49;12.50;;;9.25;;
42294;SDS011;27947;47.556;18.718;2023-05-14T12:10:14;14.38;;;9.32;;
42294;SDS011;27947;47.556;18.718;2023-05-14T12:12:43;11.35;;;8.50;;
42294;SDS011;27947;47.556;18.718;2023-05-14T12:15:11;12.93;;;8.90;;
42294;SDS011;27947;47.556;18.718;2023-05-14T12:17:37;15.68;;;9.13;;
42294;SDS011;27947;47.556;18.718;2023-05-14T12:20:03;14.27;;;9.95;;
42294;SDS011;27947;47.556;18.718;2023-05-14T12:22:30;16.02;;;9.05;;
42294;SDS011;27947;47.556;18.718;2023-05-14T12:24:56;14.88;;;9.10;;
42294;SDS011;27947;47.556;18.718;2023-05-14T12:27:22;12.68;;;8.60;;
42294;SDS011;27947;47.556;18.718;2023-05-14T12:29:49;14.13;;;8.73;;
42294;SDS011;27947;47.556;18.718;2023-05-14T12:32:17;11.70;;;8.77;;
42294;SDS011;27947;47.556;18.718;2023-05-14T12:34:43;10.35;;;8.32;;
42294;SDS011;27947;47.556;18.718;2023-05-14T12:37:09;10.00;;;7.22;;
42294;SDS011;27947;47.556;18.718;2023-05-14T12:39:34;12.40;;;8.02;;
42294;SDS011;27947;47.556;18.718;2023-05-14T12:42:00;10.30;;;6.43;;
42294;SDS011;27947;47.556;18.718;2023-05-14T12:44:25;10.27;;;6.93;;
42294;SDS011;27947;47.556;18.718;2023-05-14T12:46:51;8.85;;;6.50;;
42294;SDS011;27947;47.556;18.718;2023-05-14T12:49:16;8.55;;;5.75;;
42294;SDS011;27947;47.556;18.718;2023-05-14T12:51:41;10.18;;;5.97;;
42294;SDS011;27947;47.556;18.718;2023-05-14T12:54:07;8.60;;;5.97;;
42294;SDS011;27947;47.556;18.718;2023-05-14T12:56:32;7.10;;;5.65;;
42294;SDS011;27947;47.556;18.718;2023-05-14T12:58:58;6.72;;;5.30;;
42294;SDS011;27947;47.556;18.718;2023-05-14T13:01:23;8.07;;;5.90;;
42294;SDS011;27947;47.556;18.718;2023-05-14T13:03:48;6.95;;;5.18;;
42294;SDS011;27947;47.556;18.718;2023-05-14T13:06:14;7.13;;;5.25;;
42294;SDS011;27947;47.556;18.718;2023-05-14T13:08:40;10.48;;;5.82;;
42294;SDS011;27947;47.556;18.718;2023-05-14T13:11:05;8.00;;;5.78;;
42294;SDS011;27947;47.556;18.718;2023-05-14T13:13:30;9.63;;;6.13;;
42294;SDS011;27947;47.556;18.718;2023-05-14T13:15:56;9.20;;;6.50;;
42294;SDS011;27947;47.556;18.718;2023-05-14T13:18:21;7.60;;;6.38;;
42294;SDS011;27947;47.556;18.718;2023-05-14T13:20:46;12.77;;;6.60;;
42294;SDS011;27947;47.556;18.718;2023-05-14T13:23:12;9.88;;;6.05;;
42294;SDS011;27947;47.556;18.718;2023-05-14T13:25:38;8.70;;;5.93;;
42294;SDS011;27947;47.556;18.718;2023-05-14T13:28:03;13.18;;;7.20;;
42294;SDS011;27947;47.556;18.718;2023-05-14T13:30:29;8.50;;;6.28;;
42294;SDS011;27947;47.556;18.718;2023-05-14T13:32:54;11.45;;;7.68;;
42294;SDS011;27947;47.556;18.718;2023-05-14T13:35:19;11.50;;;7.72;;
42294;SDS011;27947;47.556;18.718;2023-05-14T13:37:45;11.05;;;6.72;;
42294;SDS011;27947;47.556;18.718;2023-05-14T13:40:11;8.75;;;5.55;;
42294;SDS011;27947;47.556;18.718;2023-05-14T13:42:36;10.75;;;6.78;;
42294;SDS011;27947;47.556;18.718;2023-05-14T13:45:03;8.07;;;5.72;;
42294;SDS011;27947;47.556;18.718;2023-05-14T13:47:29;7.57;;;5.13;;
42294;SDS011;27947;47.556;18.718;2023-05-14T13:49:55;7.45;;;4.80;;
42294;SDS011;27947;47.556;18.718;2023-05-14T13:52:23;9.90;;;5.07;;
42294;SDS011;27947;47.556;18.718;2023-05-14T13:54:48;9.93;;;5.80;;
42294;SDS011;27947;47.556;18.718;2023-05-14T13:57:14;9.30;;;5.55;;
42294;SDS011;27947;47.556;18.718;2023-05-14T13:59:40;8.05;;;5.22;;
42294;SDS011;27947;47.556;18.718;2023-05-14T14:02:06;9.23;;;5.50;;
42294;SDS011;27947;47.556;18.718;2023-05-14T14:04:31;9.02;;;5.85;;
42294;SDS011;27947;47.556;18.718;2023-05-14T14:06:57;7.88;;;5.47;;
42294;SDS011;27947;47.556;18.718;2023-05-14T14:09:22;7.97;;;6.07;;
42294;SDS011;27947;47.556;18.718;2023-05-14T14:11:48;11.32;;;7.47;;
42294;SDS011;27947;47.556;18.718;2023-05-14T14:14:13;12.27;;;7.13;;
42294;SDS011;27947;47.556;18.718;2023-05-14T14:16:39;10.05;;;6.07;;
42294;SDS011;27947;47.556;18.718;2023-05-14T14:19:05;10.13;;;6.50;;
42294;SDS011;27947;47.556;18.718;2023-05-14T14:21:30;10.48;;;5.65;;
42294;SDS011;27947;47.556;18.718;2023-05-14T14:23:56;10.93;;;7.07;;
42294;SDS011;27947;47.556;18.718;2023-05-14T14:26:22;8.98;;;6.55;;
42294;SDS011;27947;47.556;18.718;2023-05-14T14:28:47;8.30;;;6.32;;